createdAt,value
2023-03-31T00:01:34.475Z,85.72
2023-03-31T00:04:05.958Z,86.02
2023-03-31T00:06:38.307Z,86.03
2023-03-31T00:09:10.923Z,85.94
2023-03-31T00:11:40.537Z,86.05
2023-03-31T00:14:08.733Z,86.19
2023-03-31T00:16:38.075Z,86.23
2023-03-31T00:19:09.938Z,86.25
2023-03-31T00:21:42.890Z,86.25
2023-03-31T00:24:12.013Z,86.22
2023-03-31T00:26:40.523Z,86.54
2023-03-31T00:29:10.425Z,86.77
2023-03-31T00:31:39.183Z,87.08
2023-03-31T00:34:07.485Z,87.15
2023-03-31T00:36:36.953Z,86.98
2023-03-31T00:39:10.308Z,87.11
2023-03-31T00:41:39.551Z,87.00
2023-03-31T00:44:23.045Z,87.31
2023-03-31T00:47:13.118Z,87.57
2023-03-31T00:49:48.382Z,87.79
2023-03-31T00:52:21.991Z,87.93
2023-03-31T00:54:53.798Z,88.03
2023-03-31T00:57:21.990Z,87.76
2023-03-31T00:59:52.127Z,87.67
2023-03-31T01:02:20.763Z,87.67
2023-03-31T01:04:54.995Z,88.06
2023-03-31T01:07:27.430Z,88.06
2023-03-31T01:09:59.172Z,88.49
2023-03-31T01:12:27.980Z,88.99
2023-03-31T01:14:56.485Z,89.27
2023-03-31T01:17:25.261Z,89.55
2023-03-31T01:20:12.661Z,90.32
2023-03-31T01:23:12.487Z,90.53
2023-03-31T01:26:05.045Z,90.74
2023-03-31T01:28:52.435Z,91.14
2023-03-31T01:31:29.789Z,91.86
2023-03-31T01:34:23.093Z,93.13
2023-03-31T01:44:41.188Z,97.74
2023-03-31T01:47:14.480Z,98.76
2023-03-31T01:49:56.336Z,99.16
2023-03-31T01:52:46.206Z,99.57
2023-03-31T01:55:33.871Z,100.00
2023-03-31T01:58:21.717Z,99.87
2023-03-31T02:01:03.785Z,99.93
2023-03-31T02:03:35.603Z,99.87
2023-03-31T02:08:10.911Z,100.00
2023-03-31T02:10:40.169Z,100.00
2023-03-31T02:13:13.166Z,100.00
2023-03-31T02:15:46.700Z,100.00
2023-03-31T02:18:17.319Z,100.00
2023-03-31T02:20:47.966Z,100.00
2023-03-31T02:23:17.585Z,100.00
2023-03-31T02:25:49.447Z,100.00
2023-03-31T02:28:21.658Z,100.00
2023-03-31T02:31:04.014Z,100.00
2023-03-31T02:33:33.206Z,100.00
2023-03-31T02:36:01.420Z,100.00
2023-03-31T02:38:32.524Z,100.00
2023-03-31T02:41:00.739Z,100.00
2023-03-31T02:43:29.550Z,100.00
2023-03-31T02:45:57.534Z,100.00
2023-03-31T02:48:33.441Z,100.00
2023-03-31T02:51:10.924Z,100.00
2023-03-31T02:54:10.338Z,100.00
2023-03-31T02:57:19.334Z,100.00
2023-03-31T03:00:02.611Z,100.00
2023-03-31T03:02:55.658Z,100.00
2023-03-31T03:05:45.985Z,100.00
2023-03-31T03:08:55.817Z,100.00
2023-03-31T03:11:47.784Z,100.00
2023-03-31T03:14:23.252Z,100.00
2023-03-31T03:16:56.737Z,100.00
2023-03-31T03:19:25.212Z,100.00
2023-03-31T03:21:53.227Z,100.00
2023-03-31T03:24:22.912Z,100.00
2023-03-31T03:26:52.220Z,100.00
2023-03-31T03:29:20.195Z,100.00
2023-03-31T03:31:48.180Z,100.00
2023-03-31T03:34:18.714Z,100.00
2023-03-31T03:36:47.007Z,100.00
2023-03-31T03:39:20.248Z,100.00
2023-03-31T03:41:48.749Z,100.00
2023-03-31T03:44:16.925Z,100.00
2023-03-31T03:46:44.936Z,100.00
2023-03-31T03:49:23.150Z,100.00
2023-03-31T03:51:51.742Z,100.00
2023-03-31T03:54:19.730Z,100.00
2023-03-31T03:56:48.135Z,100.00
2023-03-31T03:59:16.367Z,100.00
2023-03-31T04:01:47.413Z,100.00
2023-03-31T04:04:16.331Z,100.00
2023-03-31T04:06:44.406Z,100.00
2023-03-31T04:09:12.262Z,100.00
2023-03-31T04:11:40.554Z,100.00
2023-03-31T04:14:08.863Z,100.00
2023-03-31T04:16:38.545Z,100.00
2023-03-31T04:19:07.058Z,100.00
2023-03-31T04:21:35.243Z,100.00
2023-03-31T04:24:07.389Z,100.00
2023-03-31T04:26:44.755Z,100.00
2023-03-31T04:29:14.154Z,100.00
2023-03-31T04:31:43.181Z,100.00
2023-03-31T04:34:15.217Z,100.00
2023-03-31T04:36:48.678Z,100.00
2023-03-31T04:39:17.660Z,100.00
2023-03-31T04:41:49.042Z,100.00
2023-03-31T04:44:17.621Z,100.00
2023-03-31T04:46:45.725Z,100.00
2023-03-31T04:49:16.968Z,100.00
2023-03-31T04:51:45.369Z,100.00
2023-03-31T04:54:16.669Z,100.00
2023-03-31T04:56:46.665Z,100.00
2023-03-31T04:59:14.892Z,100.00
2023-03-31T05:01:45.880Z,100.00
2023-03-31T05:04:14.313Z,100.00
2023-03-31T05:06:43.699Z,100.00
2023-03-31T05:09:12.097Z,100.00
2023-03-31T05:11:41.945Z,100.00
2023-03-31T05:14:10.311Z,100.00
2023-03-31T05:16:38.504Z,100.00
2023-03-31T05:19:06.860Z,100.00
2023-03-31T05:21:35.155Z,100.00
2023-03-31T05:24:05.095Z,100.00
2023-03-31T05:26:33.684Z,100.00
2023-03-31T05:29:02.111Z,100.00
2023-03-31T05:31:30.780Z,100.00
2023-03-31T05:33:58.969Z,100.00
2023-03-31T05:36:27.627Z,100.00
2023-03-31T05:38:55.966Z,100.00
2023-03-31T05:41:24.099Z,100.00
2023-03-31T05:43:52.603Z,100.00
2023-03-31T05:46:20.999Z,100.00
2023-03-31T05:48:50.298Z,100.00
2023-03-31T05:51:19.102Z,100.00
2023-03-31T05:53:47.598Z,100.00
2023-03-31T05:56:15.933Z,100.00
2023-03-31T05:58:45.968Z,100.00
2023-03-31T06:01:19.985Z,100.00
2023-03-31T06:03:49.168Z,100.00
2023-03-31T06:06:17.555Z,100.00
2023-03-31T06:08:48.091Z,100.00
2023-03-31T06:11:20.779Z,100.00
2023-03-31T06:13:49.388Z,100.00
2023-03-31T06:16:21.587Z,100.00
2023-03-31T06:18:51.440Z,100.00
2023-03-31T06:21:20.816Z,100.00
2023-03-31T06:23:49.638Z,100.00
2023-03-31T06:26:18.439Z,100.00
2023-03-31T06:28:46.834Z,100.00
2023-03-31T06:31:17.428Z,100.00
2023-03-31T06:33:45.848Z,100.00
2023-03-31T06:36:15.976Z,100.00
2023-03-31T06:38:44.141Z,100.00
2023-03-31T06:41:15.396Z,100.00
2023-03-31T06:43:43.496Z,100.00
2023-03-31T06:46:13.700Z,100.00
2023-03-31T06:48:41.987Z,100.00
2023-03-31T06:51:11.203Z,100.00
2023-03-31T06:53:39.833Z,100.00
2023-03-31T06:56:09.369Z,100.00
2023-03-31T06:58:37.870Z,100.00
2023-03-31T07:01:07.405Z,100.00
2023-03-31T07:03:44.893Z,100.00
2023-03-31T07:06:13.485Z,100.00
2023-03-31T07:08:41.513Z,100.00
2023-03-31T07:11:10.764Z,100.00
2023-03-31T07:13:42.019Z,100.00
2023-03-31T07:16:13.688Z,100.00
2023-03-31T07:18:42.264Z,100.00
2023-03-31T07:21:11.079Z,100.00
2023-03-31T07:23:40.054Z,100.00
2023-03-31T07:26:08.766Z,100.00
2023-03-31T07:28:36.980Z,100.00
2023-03-31T07:31:11.342Z,100.00
2023-03-31T07:33:41.272Z,100.00
2023-03-31T07:36:13.448Z,100.00
2023-03-31T07:38:46.832Z,100.00
2023-03-31T07:41:19.973Z,100.00
2023-03-31T07:43:48.702Z,100.00
2023-03-31T07:46:22.396Z,100.00
2023-03-31T07:48:51.666Z,100.00
2023-03-31T07:51:21.599Z,100.00
2023-03-31T07:53:49.728Z,100.00
2023-03-31T07:56:22.456Z,100.00
2023-03-31T07:58:54.455Z,100.00
2023-03-31T08:01:26.313Z,100.00
2023-03-31T08:03:55.857Z,100.00
2023-03-31T08:06:25.560Z,100.00
2023-03-31T08:08:53.567Z,100.00
2023-03-31T08:18:59.590Z,100.00
2023-03-31T08:21:29.903Z,100.00
2023-03-31T08:24:01.560Z,100.00
2023-03-31T08:26:32.101Z,100.00
2023-03-31T08:29:00.413Z,100.00
2023-03-31T08:31:29.262Z,100.00
2023-03-31T08:33:57.500Z,100.00
2023-03-31T08:36:27.279Z,100.00
2023-03-31T08:38:56.120Z,100.00
2023-03-31T08:41:33.846Z,100.00
2023-03-31T08:44:16.391Z,100.00
2023-03-31T08:46:45.381Z,100.00
2023-03-31T08:49:17.870Z,100.00
2023-03-31T08:51:52.296Z,100.00
2023-03-31T08:54:29.377Z,100.00
2023-03-31T08:57:06.355Z,100.00
2023-03-31T08:59:41.177Z,100.00
2023-03-31T09:02:21.759Z,100.00
2023-03-31T09:05:17.575Z,100.00
2023-03-31T09:07:55.726Z,96.44
2023-03-31T09:10:35.606Z,95.42
2023-03-31T09:13:09.817Z,96.39
2023-03-31T09:15:46.517Z,93.19
2023-03-31T09:18:19.774Z,92.19
2023-03-31T09:21:33.284Z,91.38
2023-03-31T09:24:20.957Z,90.12
2023-03-31T09:26:57.322Z,90.59
2023-03-31T09:29:31.503Z,90.79
2023-03-31T09:32:09.385Z,91.38
2023-03-31T09:34:38.047Z,92.38
2023-03-31T09:37:06.084Z,92.15
2023-03-31T09:39:36.391Z,92.03
2023-03-31T09:42:04.737Z,91.68
2023-03-31T09:44:44.432Z,92.20
2023-03-31T09:47:24.748Z,91.90
2023-03-31T09:49:53.792Z,90.75
2023-03-31T09:52:27.301Z,89.31
2023-03-31T09:54:57.072Z,88.67
2023-03-31T09:57:33.774Z,89.11
2023-03-31T10:00:14.368Z,88.06
2023-03-31T10:02:53.588Z,86.20
2023-03-31T10:05:21.569Z,87.23
2023-03-31T10:07:50.058Z,88.30
2023-03-31T10:10:36.191Z,87.48
2023-03-31T10:13:09.087Z,85.49
2023-03-31T10:15:39.691Z,85.82
2023-03-31T10:18:14.674Z,84.06
2023-03-31T10:20:52.156Z,84.46
2023-03-31T10:23:20.986Z,85.62
2023-03-31T10:25:49.844Z,85.79
2023-03-31T10:28:20.397Z,84.83
2023-03-31T10:30:56.538Z,84.22
2023-03-31T10:33:26.157Z,84.00
2023-03-31T10:35:59.600Z,82.48
2023-03-31T10:38:30.945Z,82.02
2023-03-31T10:40:59.667Z,81.57
2023-03-31T10:43:41.790Z,82.29
2023-03-31T10:46:14.082Z,82.40
2023-03-31T10:48:44.370Z,81.96
2023-03-31T10:51:17.499Z,82.23
2023-03-31T10:53:48.401Z,81.49
2023-03-31T10:56:42.454Z,80.50
2023-03-31T10:59:41.799Z,80.04
2023-03-31T11:02:33.488Z,77.88
2023-03-31T11:05:36.870Z,76.57
2023-03-31T11:08:29.664Z,74.83
2023-03-31T11:11:26.185Z,75.14
2023-03-31T11:14:01.790Z,73.55
2023-03-31T11:17:04.239Z,73.54
2023-03-31T11:19:41.744Z,72.93
2023-03-31T11:22:18.688Z,71.79
2023-03-31T11:24:53.984Z,71.20
2023-03-31T11:27:36.003Z,70.80
2023-03-31T11:30:07.521Z,71.03
2023-03-31T11:33:13.996Z,70.34
2023-03-31T11:35:50.933Z,70.31
2023-03-31T11:38:24.147Z,72.53
2023-03-31T11:41:03.997Z,71.47
2023-03-31T11:43:36.470Z,68.49
2023-03-31T11:46:06.611Z,66.81
2023-03-31T11:48:43.935Z,66.01
2023-03-31T11:51:19.881Z,65.51
2023-03-31T11:53:48.110Z,64.66
2023-03-31T11:56:16.625Z,64.61
2023-03-31T11:58:57.977Z,65.66
2023-03-31T12:02:11.572Z,65.74
2023-03-31T12:04:41.953Z,65.55
2023-03-31T12:07:32.628Z,65.41
2023-03-31T12:10:21.256Z,64.30
2023-03-31T12:13:07.470Z,62.45
2023-03-31T12:15:42.126Z,62.39
2023-03-31T12:18:14.414Z,62.21
2023-03-31T12:20:47.835Z,61.69
2023-03-31T12:23:18.627Z,63.23
2023-03-31T12:25:56.399Z,63.58
2023-03-31T12:28:24.879Z,61.83
2023-03-31T12:30:54.945Z,60.96
2023-03-31T12:33:34.154Z,61.64
2023-03-31T12:36:18.277Z,61.26
2023-03-31T12:39:12.607Z,62.97
2023-03-31T12:41:59.671Z,64.13
2023-03-31T12:44:34.521Z,63.86
2023-03-31T12:47:21.475Z,62.86
2023-03-31T12:50:04.729Z,61.88
2023-03-31T12:53:05.795Z,62.63
2023-03-31T12:55:41.431Z,61.24
2023-03-31T12:58:26.824Z,61.93
2023-03-31T13:01:10.448Z,62.09
2023-03-31T13:03:45.548Z,59.75
2023-03-31T13:06:26.131Z,58.56
2023-03-31T13:08:56.121Z,58.43
2023-03-31T13:11:33.332Z,59.80
2023-03-31T13:14:11.028Z,59.22
2023-03-31T13:16:46.679Z,58.69
2023-03-31T13:19:35.118Z,58.23
2023-03-31T13:22:04.565Z,58.52
2023-03-31T13:24:33.814Z,58.85
2023-03-31T13:27:29.218Z,58.11
2023-03-31T13:29:57.248Z,57.22
2023-03-31T13:32:26.493Z,55.89
2023-03-31T13:34:58.887Z,54.35
2023-03-31T13:37:45.837Z,54.24
2023-03-31T13:40:26.424Z,54.61
2023-03-31T13:43:06.469Z,55.28
2023-03-31T13:46:06.362Z,54.86
2023-03-31T13:49:06.659Z,55.89
2023-03-31T13:51:44.149Z,55.07
2023-03-31T13:54:12.307Z,54.94
2023-03-31T13:56:49.450Z,54.47
2023-03-31T13:59:29.891Z,54.76
2023-03-31T14:02:32.831Z,55.09
2023-03-31T14:05:04.410Z,53.84
2023-03-31T14:07:34.854Z,53.60
2023-03-31T14:10:07.350Z,54.38
2023-03-31T14:12:37.693Z,54.39
2023-03-31T14:15:18.477Z,54.75
2023-03-31T14:17:46.705Z,54.35
2023-03-31T14:20:30.884Z,54.84
2023-03-31T14:26:42.581Z,54.18
2023-03-31T14:29:23.376Z,52.33
2023-03-31T14:32:46.092Z,51.99
2023-03-31T14:35:43.393Z,52.17
2023-03-31T14:38:17.444Z,52.90
2023-03-31T14:40:48.503Z,53.14
2023-03-31T14:43:24.335Z,53.17
2023-03-31T14:46:01.792Z,53.18
2023-03-31T14:48:30.640Z,53.61
2023-03-31T14:51:01.364Z,53.50
2023-03-31T14:53:29.513Z,53.21
2023-03-31T14:56:02.555Z,53.24
2023-03-31T14:58:34.929Z,52.67
2023-03-31T15:01:04.254Z,52.87
2023-03-31T15:03:34.774Z,52.01
2023-03-31T15:06:03.922Z,51.84
2023-03-31T15:08:32.160Z,51.78
2023-03-31T15:11:12.606Z,51.64
2023-03-31T15:14:03.703Z,52.50
2023-03-31T15:16:44.510Z,53.00
2023-03-31T15:19:21.826Z,53.47
2023-03-31T15:22:08.930Z,53.91
2023-03-31T15:24:37.162Z,54.00
2023-03-31T15:27:36.631Z,54.62
2023-03-31T15:30:07.286Z,54.01
2023-03-31T15:32:36.598Z,54.26
2023-03-31T15:37:40.485Z,54.92
2023-03-31T15:40:23.271Z,54.77
2023-03-31T15:45:57.215Z,54.77
2023-03-31T15:48:35.820Z,55.61
2023-03-31T15:51:18.622Z,55.77
2023-03-31T15:53:50.897Z,56.56
2023-03-31T15:56:28.436Z,57.20
2023-03-31T15:59:00.028Z,57.10
2023-03-31T16:01:32.851Z,57.87
2023-03-31T16:04:02.705Z,58.11
2023-03-31T16:06:33.359Z,58.79
2023-03-31T16:09:09.162Z,58.91
2023-03-31T16:11:43.723Z,58.93
2023-03-31T16:14:33.156Z,59.07
2023-03-31T16:17:07.393Z,59.04
2023-03-31T16:19:47.126Z,59.22
2023-03-31T16:22:19.501Z,59.11
2023-03-31T16:24:47.657Z,59.32
2023-03-31T16:27:15.911Z,59.21
2023-03-31T16:29:45.738Z,59.58
2023-03-31T16:32:15.663Z,59.88
2023-03-31T16:35:02.007Z,60.19
2023-03-31T16:37:30.783Z,60.61
2023-03-31T16:39:58.947Z,61.14
2023-03-31T16:42:27.330Z,61.30
2023-03-31T16:45:12.632Z,61.48
2023-03-31T16:47:45.315Z,61.82
2023-03-31T16:50:15.352Z,61.70
2023-03-31T16:52:44.195Z,61.82
2023-03-31T16:55:12.603Z,61.95
2023-03-31T16:57:42.106Z,62.25
2023-03-31T17:00:11.793Z,62.75
2023-03-31T17:02:40.538Z,63.33
2023-03-31T17:05:13.159Z,63.81
2023-03-31T17:07:42.028Z,64.75
2023-03-31T17:10:14.749Z,65.35
2023-03-31T17:12:45.864Z,65.87
2023-03-31T17:15:14.071Z,66.51
2023-03-31T17:17:46.544Z,67.27
2023-03-31T17:20:15.976Z,67.97
2023-03-31T17:22:44.319Z,68.05
2023-03-31T17:25:12.944Z,68.51
2023-03-31T17:35:20.816Z,69.76
2023-03-31T17:37:53.956Z,69.79
2023-03-31T17:40:26.822Z,70.31
2023-03-31T17:43:05.387Z,70.56
2023-03-31T17:45:35.622Z,70.63
2023-03-31T17:48:06.726Z,71.11
2023-03-31T17:50:36.616Z,71.21
2023-03-31T17:53:09.074Z,72.08
2023-03-31T17:55:39.190Z,72.43
2023-03-31T17:58:08.700Z,72.71
2023-03-31T18:00:40.554Z,73.44
2023-03-31T18:03:09.298Z,73.77
2023-03-31T18:05:41.908Z,74.09
2023-03-31T18:08:12.183Z,74.20
2023-03-31T18:10:41.236Z,74.85
2023-03-31T18:13:10.096Z,75.24
2023-03-31T18:15:46.759Z,75.43
2023-03-31T18:18:15.745Z,76.51
2023-03-31T18:20:50.594Z,77.22
2023-03-31T18:23:19.018Z,77.46
2023-03-31T18:25:47.336Z,77.60
2023-03-31T18:28:16.145Z,77.95
2023-03-31T18:30:44.852Z,78.51
2023-03-31T18:33:13.484Z,79.13
2023-03-31T18:35:42.893Z,79.23
2023-03-31T18:38:12.285Z,80.02
2023-03-31T18:40:40.560Z,80.16
2023-03-31T18:43:08.950Z,80.70
2023-03-31T18:45:38.611Z,81.32
2023-03-31T18:48:06.912Z,81.41
2023-03-31T18:50:36.018Z,81.35
2023-03-31T18:53:05.112Z,81.31
2023-03-31T18:55:33.530Z,81.36
2023-03-31T18:58:01.684Z,81.41
2023-03-31T19:00:29.790Z,81.72
2023-03-31T19:02:59.434Z,81.60
2023-03-31T19:05:28.759Z,81.60
2023-03-31T19:07:57.628Z,81.92
2023-03-31T19:10:26.098Z,82.52
2023-03-31T19:12:57.244Z,82.94
2023-03-31T19:15:26.750Z,83.44
2023-03-31T19:17:56.581Z,83.97
2023-03-31T19:20:26.899Z,84.79
2023-03-31T19:22:56.140Z,85.33
2023-03-31T19:25:27.253Z,85.34
2023-03-31T19:27:56.300Z,85.68
2023-03-31T19:30:25.106Z,86.07
2023-03-31T19:32:56.574Z,86.61
2023-03-31T19:35:27.407Z,86.95
2023-03-31T19:37:57.618Z,87.57
2023-03-31T19:40:26.321Z,87.60
2023-03-31T19:42:54.461Z,87.69
2023-03-31T19:45:24.550Z,88.30
2023-03-31T19:47:53.252Z,88.81
2023-03-31T19:50:21.691Z,89.32
2023-03-31T19:52:50.874Z,89.78
2023-03-31T19:55:19.492Z,89.96
2023-03-31T19:57:47.867Z,89.98
2023-03-31T20:00:19.673Z,89.96
2023-03-31T20:03:04.623Z,90.31
2023-03-31T20:05:33.830Z,90.56
2023-03-31T20:08:01.963Z,90.26
2023-03-31T20:10:36.485Z,90.55
2023-03-31T20:13:04.896Z,91.05
2023-03-31T20:15:34.086Z,91.23
2023-03-31T20:18:03.225Z,91.82
2023-03-31T20:20:32.000Z,92.29
2023-03-31T20:23:00.248Z,92.73
2023-03-31T20:25:29.833Z,93.06
2023-03-31T20:27:58.524Z,93.22
2023-03-31T20:30:28.356Z,93.10
2023-03-31T20:32:57.188Z,93.11
2023-03-31T20:43:00.132Z,94.97
2023-03-31T20:45:28.630Z,94.96
2023-03-31T20:47:57.253Z,95.09
2023-03-31T20:50:25.520Z,95.05
2023-03-31T20:52:54.022Z,95.19
2023-03-31T20:55:22.315Z,95.66
2023-03-31T20:57:53.004Z,96.13
2023-03-31T21:00:22.109Z,96.53
2023-03-31T21:02:53.583Z,96.76
2023-03-31T21:05:22.170Z,96.90
2023-03-31T21:07:50.456Z,97.51
2023-03-31T21:10:24.513Z,97.89
2023-03-31T21:12:54.532Z,97.87
2023-03-31T21:15:22.837Z,97.94
2023-03-31T21:17:51.207Z,98.28
2023-03-31T21:20:19.420Z,98.32
2023-03-31T21:22:48.545Z,98.57
2023-03-31T21:25:17.141Z,98.78
2023-03-31T21:27:45.531Z,98.83
2023-03-31T21:30:14.766Z,99.23
2023-03-31T21:32:43.278Z,98.94
2023-03-31T21:35:11.855Z,98.38
2023-03-31T21:37:40.115Z,98.29
2023-03-31T21:40:09.736Z,98.32
2023-03-31T21:42:38.511Z,97.96
2023-03-31T21:45:07.605Z,97.72
2023-03-31T21:47:36.238Z,97.51
2023-03-31T21:50:05.127Z,97.54
2023-03-31T21:52:34.032Z,97.62
2023-03-31T21:55:02.393Z,97.47
2023-03-31T21:57:31.167Z,97.65
2023-03-31T21:59:59.590Z,98.34
2023-03-31T22:02:27.644Z,98.32
2023-03-31T22:04:56.302Z,99.12
2023-03-31T22:07:24.411Z,99.33
2023-03-31T22:09:52.582Z,99.51
2023-03-31T22:12:21.201Z,99.44
2023-03-31T22:14:49.570Z,98.96
2023-03-31T22:17:18.163Z,98.69
2023-03-31T22:19:46.422Z,98.81
2023-03-31T22:22:14.625Z,99.12
2023-03-31T22:24:44.231Z,98.95
2023-03-31T22:27:12.854Z,99.64
2023-03-31T22:29:43.758Z,99.61
2023-03-31T22:32:11.831Z,99.95
2023-03-31T22:34:40.960Z,100.00
2023-03-31T22:37:09.254Z,100.00
2023-03-31T22:39:38.019Z,100.00
2023-03-31T22:42:06.506Z,100.00
2023-03-31T22:44:38.106Z,100.00
2023-03-31T22:47:09.276Z,100.00
2023-03-31T22:49:37.534Z,100.00
2023-03-31T22:52:05.898Z,100.00
2023-03-31T22:54:34.058Z,100.00
2023-03-31T22:57:02.520Z,100.00
2023-03-31T22:59:31.248Z,100.00
2023-03-31T23:01:59.935Z,100.00
2023-03-31T23:04:28.136Z,100.00
2023-03-31T23:06:56.303Z,100.00
2023-03-31T23:09:24.902Z,100.00
2023-03-31T23:11:53.379Z,100.00
2023-03-31T23:14:21.766Z,100.00
2023-03-31T23:16:51.842Z,100.00
2023-03-31T23:19:20.069Z,100.00
2023-03-31T23:21:48.567Z,100.00
2023-03-31T23:24:20.047Z,100.00
2023-03-31T23:26:51.910Z,100.00
2023-03-31T23:29:20.278Z,100.00
2023-03-31T23:31:48.373Z,100.00
2023-03-31T23:34:17.151Z,100.00
2023-03-31T23:36:45.453Z,100.00
2023-03-31T23:39:14.946Z,100.00
2023-03-31T23:41:43.839Z,100.00
2023-03-31T23:44:12.961Z,100.00
2023-03-31T23:46:44.358Z,100.00
2023-03-31T23:49:12.690Z,100.00
2023-03-31T23:51:42.535Z,100.00
2023-03-31T23:54:10.900Z,100.00
2023-03-31T23:56:40.644Z,100.00
2023-03-31T23:59:09.108Z,100.00
